Time;durP1;ratioP1;P1;durP2;ratioP2;P2;SDS_P1;SDS_P2;PMS_P1;PMS_P2;Temp;Humidity;BMP_temperature;BMP_pressure;BME280_temperature;BME280_humidity;BME280_pressure;Samples;Min_cycle;Max_cycle;Signal;HPM_P1;HPM_P2
2023/10/10 00:00:23;;;;;;;;;;;;;;;;;;5152304;27;19963;-51
2023/10/10 00:02:50;;;;;;;;;;;;;;;;;;5173272;27;19930;-51
2023/10/10 00:05:18;;;;;;;;;;;;;;;;;;5172921;27;19923;-52
2023/10/10 00:07:43;;;;;;;;;;;;;;;;;;5167918;27;19927;-51
2023/10/10 00:10:13;;;;;;;;;;;;;;;;;;5131238;28;19959;-51
2023/10/10 00:12:39;;;;;;;;;;;;;;;;;;5131030;28;19977;-51
2023/10/10 00:15:13;;;;;;;;;;;;;;;;;;5130890;28;19923;-51
2023/10/10 00:17:41;;;;;;;;;;;;;;;;;;5131053;27;19980;-51
2023/10/10 00:20:22;;;;;;;;;;;;;;;;;;5131726;28;19931;-51
2023/10/10 00:22:49;;;;;;;;;;;;;;;;;;5130992;28;19928;-51
2023/10/10 00:25:16;;;;;;;;;;;;;;;;;;5131245;28;20287;-51
2023/10/10 00:27:43;;;;;;;;;;;;;;;;;;5130910;27;20011;-51
2023/10/10 00:30:14;;;;;;;;;;;;;;;;;;5131484;28;19923;-52
2023/10/10 00:32:42;;;;;;;;;;;;;;;;;;5138448;27;19962;-52
2023/10/10 00:35:09;;;;;;;;;;;;;;;;;;5151756;27;19927;-50
2023/10/10 00:37:35;;;;;;;;;;;;;;;;;;5151211;27;19927;-51
2023/10/10 00:40:07;;;;;;;;;;;;;;;;;;5151507;27;19927;-52
2023/10/10 00:42:48;;;;;;;;;;;;;;;;;;5151423;27;19934;-50
2023/10/10 00:45:14;;;;;;;;;;;;;;;;;;5150970;27;19966;-51
2023/10/10 00:47:42;;;;;;;;;;;;;;;;;;5150593;27;19935;-52
2023/10/10 00:50:14;;;;;;;;;;;;;;;;;;5151774;27;19927;-51
2023/10/10 00:52:46;;;;;;;;;;;;;;;;;;5150514;27;20416;-51
2023/10/10 00:55:11;;;;;;;;;;;;;;;;;;5151742;27;19961;-51
2023/10/10 00:57:37;;;;;;;;;;;;;;;;;;5154064;27;19980;-51
2023/10/10 01:00:07;;;;;;;;;;;;;;;;;;5165064;27;19927;-51
2023/10/10 01:02:34;;;;;;;;;;;;;;;;;;5176283;27;19946;-51
2023/10/10 01:05:11;;;;;;;;;;;;;;;;;;5176046;27;19930;-50
2023/10/10 01:07:37;;;;;;;;;;;;;;;;;;5172889;27;20389;-52
2023/10/10 01:10:17;;;;;;;;;;;;;;;;;;5134153;28;19971;-52
2023/10/10 01:12:43;;;;;;;;;;;;;;;;;;5133945;28;19950;-51
2023/10/10 01:15:14;;;;;;;;;;;;;;;;;;5134024;28;20279;-51
2023/10/10 01:17:39;;;;;;;;;;;;;;;;;;5133769;27;19927;-51
2023/10/10 01:20:09;;;;;;;;;;;;;;;;;;5134155;28;19923;-51
2023/10/10 01:22:38;;;;;;;;;;;;;;;;;;5134230;28;19931;-51
2023/10/10 01:25:28;;;;;;;;;;;;;;;;;;5133912;28;20275;-51
2023/10/10 01:27:53;;;;;;;;;;;;;;;;;;5118117;27;19939;-51
2023/10/10 01:30:19;;;;;;;;;;;;;;;;;;5134199;28;19927;-51
2023/10/10 01:32:50;;;;;;;;;;;;;;;;;;5133752;28;19971;-51
2023/10/10 01:35:16;;;;;;;;;;;;;;;;;;5148338;27;19923;-52
2023/10/10 01:37:41;;;;;;;;;;;;;;;;;;5153849;27;19923;-51
2023/10/10 01:40:24;;;;;;;;;;;;;;;;;;5154205;27;20005;-52
2023/10/10 01:42:59;;;;;;;;;;;;;;;;;;5153521;27;20312;-51
2023/10/10 01:45:27;;;;;;;;;;;;;;;;;;5153969;27;20320;-51
2023/10/10 01:48:08;;;;;;;;;;;;;;;;;;5151428;27;19973;-50
2023/10/10 01:50:33;;;;;;;;;;;;;;;;;;5154226;27;19923;-49
2023/10/10 01:53:00;;;;;;;;;;;;;;;;;;5153858;27;20374;-51
2023/10/10 01:55:25;;;;;;;;;;;;;;;;;;5154058;27;19976;-49
2023/10/10 01:57:51;;;;;;;;;;;;;;;;;;5153418;27;20328;-50
2023/10/10 02:00:34;;;;;;;;;;;;;;;;;;5153401;27;19927;-52
2023/10/10 02:03:01;;;;;;;;;;;;;;;;;;5154299;27;19927;-51
2023/10/10 02:05:45;;;;;;;;;;;;;;;;;;5133179;28;19927;-52
2023/10/10 02:08:16;;;;;;;;;;;;;;;;;;5138721;27;19969;-51
2023/10/10 02:10:45;;;;;;;;;;;;;;;;;;5154168;27;19927;-52
2023/10/10 02:13:11;;;;;;;;;;;;;;;;;;5152861;27;20353;-50
2023/10/10 02:15:39;;;;;;;;;;;;;;;;;;5153312;27;20393;-51
2023/10/10 02:18:04;;;;;;;;;;;;;;;;;;5154006;27;20356;-52
2023/10/10 02:25:46;;;;;;;;;;;;;;;;;;5138460;27;19923;-51
2023/10/10 02:30:47;;;;;;;;;;;;;;;;;;5154485;27;20070;-51
2023/10/10 02:33:16;;;;;;;;;;;;;;;;;;5154091;27;19930;-52
2023/10/10 02:35:57;;;;;;;;;;;;;;;;;;5154007;27;19923;-51
2023/10/10 02:38:23;;;;;;;;;;;;;;;;;;5145265;27;19931;-52
2023/10/10 02:40:52;;;;;;;;;;;;;;;;;;5132254;28;20402;-51
2023/10/10 02:43:32;;;;;;;;;;;;;;;;;;5132205;28;19974;-51
2023/10/10 02:45:58;;;;;;;;;;;;;;;;;;5131793;28;19928;-51
2023/10/10 02:48:26;;;;;;;;;;;;;;;;;;5136777;27;19967;-51
2023/10/10 02:50:52;;;;;;;;;;;;;;;;;;5153177;27;20003;-51
2023/10/10 02:53:19;;;;;;;;;;;;;;;;;;5153180;27;20392;-52
2023/10/10 02:55:50;;;;;;;;;;;;;;;;;;5153970;27;19923;-52
2023/10/10 02:58:20;;;;;;;;;;;;;;;;;;5145165;27;19971;-51
2023/10/10 03:00:47;;;;;;;;;;;;;;;;;;5174430;27;20054;-50
2023/10/10 03:03:18;;;;;;;;;;;;;;;;;;5174953;27;19931;-52
2023/10/10 03:05:50;;;;;;;;;;;;;;;;;;5174201;27;20355;-52
2023/10/10 03:08:18;;;;;;;;;;;;;;;;;;5160264;27;20412;-51
2023/10/10 03:10:45;;;;;;;;;;;;;;;;;;5132825;28;19934;-51
2023/10/10 03:13:27;;;;;;;;;;;;;;;;;;5131898;28;20253;-51
2023/10/10 03:15:55;;;;;;;;;;;;;;;;;;5132969;28;19935;-51
2023/10/10 03:18:28;;;;;;;;;;;;;;;;;;5132476;27;20364;-52
2023/10/10 03:21:43;;;;;;;;;;;;;;;;;;5131768;28;19923;-51
2023/10/10 03:23:56;;;;;;;;;;;;;;;;;;5116813;28;19934;-51
2023/10/10 03:27:00;;;;;;;;;;;;;;;;;;5132083;28;19923;-51
2023/10/10 03:29:11;;;;;;;;;;;;;;;;;;5116569;28;19927;-52
2023/10/10 03:31:47;;;;;;;;;;;;;;;;;;5132710;28;20298;-51
2023/10/10 03:34:32;;;;;;;;;;;;;;;;;;5132138;28;19923;-51
2023/10/10 03:37:20;;;;;;;;;;;;;;;;;;5116931;28;19924;-51
2023/10/10 03:39:49;;;;;;;;;;;;;;;;;;5140048;27;19931;-52
2023/10/10 05:24:20;;;;;;;;;;;;;;;;;;5118670;28;19923;-51
2023/10/10 05:26:46;;;;;;;;;;;;;;;;;;5133935;28;19974;-51
2023/10/10 05:29:11;;;;;;;;;;;;;;;;;;5133772;27;19974;-50
2023/10/10 05:31:37;;;;;;;;;;;;;;;;;;5134141;28;19984;-51
2023/10/10 05:34:03;;;;;;;;;;;;;;;;;;5133967;28;19929;-52
2023/10/10 05:36:28;;;;;;;;;;;;;;;;;;5133510;28;20628;-51
2023/10/10 05:38:55;;;;;;;;;;;;;;;;;;5132956;27;20406;-51
2023/10/10 05:41:22;;;;;;;;;;;;;;;;;;5138836;27;19924;-52
2023/10/10 05:43:49;;;;;;;;;;;;;;;;;;5153270;27;19937;-51
2023/10/10 05:46:15;;;;;;;;;;;;;;;;;;5154444;27;19923;-52
2023/10/10 05:48:41;;;;;;;;;;;;;;;;;;5154090;27;20487;-51
2023/10/10 05:51:09;;;;;;;;;;;;;;;;;;5154307;27;20015;-52
2023/10/10 05:53:34;;;;;;;;;;;;;;;;;;5154029;27;19950;-50
2023/10/10 05:56:12;;;;;;;;;;;;;;;;;;5152986;27;20347;-52
2023/10/10 05:58:37;;;;;;;;;;;;;;;;;;5154193;27;19923;-52
2023/10/10 06:01:03;;;;;;;;;;;;;;;;;;5175457;27;20341;-52
2023/10/10 06:03:31;;;;;;;;;;;;;;;;;;5174923;27;19926;-52
2023/10/10 06:05:58;;;;;;;;;;;;;;;;;;5174252;27;20323;-50
2023/10/10 06:08:25;;;;;;;;;;;;;;;;;;5158488;27;19965;-52
2023/10/10 06:10:53;;;;;;;;;;;;;;;;;;5133166;28;20270;-51
2023/10/10 06:13:19;;;;;;;;;;;;;;;;;;5133063;28;19962;-51
2023/10/10 06:15:44;;;;;;;;;;;;;;;;;;5132964;28;19923;-52
2023/10/10 06:18:13;;;;;;;;;;;;;;;;;;5133124;27;20059;-52
2023/10/10 06:20:40;;;;;;;;;;;;;;;;;;5133549;28;19923;-52
2023/10/10 06:23:21;;;;;;;;;;;;;;;;;;5133358;28;19931;-51
2023/10/10 06:25:47;;;;;;;;;;;;;;;;;;5133258;28;19923;-51
2023/10/10 06:28:29;;;;;;;;;;;;;;;;;;5132255;27;20303;-51
2023/10/10 06:30:54;;;;;;;;;;;;;;;;;;5133131;28;19985;-52
2023/10/10 06:33:27;;;;;;;;;;;;;;;;;;5133161;28;19924;-52
2023/10/10 06:35:52;;;;;;;;;;;;;;;;;;5132636;28;19927;-51
2023/10/10 06:38:18;;;;;;;;;;;;;;;;;;5132159;27;20013;-51
2023/10/10 06:40:56;;;;;;;;;;;;;;;;;;5133042;28;20260;-51
2023/10/10 06:43:22;;;;;;;;;;;;;;;;;;5139507;27;19974;-50
2023/10/10 06:45:54;;;;;;;;;;;;;;;;;;5153464;27;19923;-51
2023/10/10 06:48:21;;;;;;;;;;;;;;;;;;5145775;27;20008;-51
2023/10/10 06:50:49;;;;;;;;;;;;;;;;;;5132781;28;19924;-52
2023/10/10 06:53:28;;;;;;;;;;;;;;;;;;5132250;27;20343;-52
2023/10/10 06:55:54;;;;;;;;;;;;;;;;;;5137675;27;19931;-50
2023/10/10 06:58:19;;;;;;;;;;;;;;;;;;5145235;27;20363;-51
2023/10/10 07:00:45;;;;;;;;;;;;;;;;;;5173284;27;19996;-51
2023/10/10 07:03:10;;;;;;;;;;;;;;;;;;5166408;27;19927;-52
2023/10/10 07:05:39;;;;;;;;;;;;;;;;;;5152935;27;19930;-51
2023/10/10 07:08:24;;;;;;;;;;;;;;;;;;5152743;27;19927;-52
2023/10/10 07:10:50;;;;;;;;;;;;;;;;;;5153513;27;19971;-51
2023/10/10 07:13:19;;;;;;;;;;;;;;;;;;5152893;27;20049;-52
2023/10/10 07:15:51;;;;;;;;;;;;;;;;;;5152671;27;19959;-51
2023/10/10 07:18:22;;;;;;;;;;;;;;;;;;5153507;27;19930;-51
2023/10/10 07:21:30;;;;;;;;;;;;;;;;;;5153828;27;19972;-52
2023/10/10 07:26:19;;;;;;;;;;;;;;;;;;5137911;27;19927;-51
2023/10/10 07:28:48;;;;;;;;;;;;;;;;;;5153112;27;19927;-52
2023/10/10 07:31:17;;;;;;;;;;;;;;;;;;5153492;27;19938;-49
2023/10/10 07:33:43;;;;;;;;;;;;;;;;;;5152637;27;20354;-51
2023/10/10 07:36:13;;;;;;;;;;;;;;;;;;5152383;27;20247;-51
2023/10/10 07:38:38;;;;;;;;;;;;;;;;;;5152028;27;19923;-52
2023/10/10 07:41:04;;;;;;;;;;;;;;;;;;5152541;27;20021;-50
2023/10/10 07:43:34;;;;;;;;;;;;;;;;;;5151759;27;19927;-52
2023/10/10 07:45:59;;;;;;;;;;;;;;;;;;5152177;27;19974;-51
2023/10/10 07:51:09;;;;;;;;;;;;;;;;;;5151832;27;19931;-51
2023/10/10 07:53:35;;;;;;;;;;;;;;;;;;5151835;27;19977;-51
2023/10/10 07:56:01;;;;;;;;;;;;;;;;;;5146409;27;19924;-52
2023/10/10 07:58:42;;;;;;;;;;;;;;;;;;5142312;27;19969;-50
2023/10/10 08:01:17;;;;;;;;;;;;;;;;;;5151621;27;19992;-52
2023/10/10 08:03:44;;;;;;;;;;;;;;;;;;5151883;27;20572;-52
2023/10/10 08:06:09;;;;;;;;;;;;;;;;;;5151308;27;19923;-51
2023/10/10 08:08:36;;;;;;;;;;;;;;;;;;5150566;27;20291;-52
2023/10/10 08:11:05;;;;;;;;;;;;;;;;;;5151900;27;19930;-51
2023/10/10 08:13:32;;;;;;;;;;;;;;;;;;5151372;27;19982;-51
2023/10/10 08:16:02;;;;;;;;;;;;;;;;;;5130002;28;20786;-51
2023/10/10 08:19:04;;;;;;;;;;;;;;;;;;5131134;28;19949;-52
2023/10/10 08:21:13;;;;;;;;;;;;;;;;;;5116710;28;19931;-52
2023/10/10 08:23:42;;;;;;;;;;;;;;;;;;5132009;28;19927;-52
2023/10/10 08:26:08;;;;;;;;;;;;;;;;;;5131597;28;19930;-52
2023/10/10 08:28:33;;;;;;;;;;;;;;;;;;5131253;28;19927;-50
2023/10/10 08:30:59;;;;;;;;;;;;;;;;;;5132204;28;20415;-52
2023/10/10 08:33:31;;;;;;;;;;;;;;;;;;5131444;28;19973;-51
2023/10/10 08:35:57;;;;;;;;;;;;;;;;;;5131153;28;20376;-52
2023/10/10 08:38:23;;;;;;;;;;;;;;;;;;5131142;28;20010;-52
2023/10/10 08:40:49;;;;;;;;;;;;;;;;;;5131700;28;19970;-51
2023/10/10 08:43:14;;;;;;;;;;;;;;;;;;5130788;27;20026;-51
2023/10/10 08:45:40;;;;;;;;;;;;;;;;;;5131178;28;20375;-51
2023/10/10 08:48:12;;;;;;;;;;;;;;;;;;5129240;28;19924;-51
2023/10/10 08:50:37;;;;;;;;;;;;;;;;;;5131648;28;19930;-51
2023/10/10 08:53:03;;;;;;;;;;;;;;;;;;5131653;28;19971;-51
2023/10/10 08:55:29;;;;;;;;;;;;;;;;;;5130882;28;20037;-51
2023/10/10 08:57:55;;;;;;;;;;;;;;;;;;5127701;28;19974;-52
2023/10/10 09:00:21;;;;;;;;;;;;;;;;;;5116732;28;19931;-51
2023/10/10 09:02:49;;;;;;;;;;;;;;;;;;5128788;28;19924;-52
2023/10/10 09:05:15;;;;;;;;;;;;;;;;;;5131236;28;19927;-51
2023/10/10 09:07:43;;;;;;;;;;;;;;;;;;5127724;28;20390;-53
2023/10/10 09:10:13;;;;;;;;;;;;;;;;;;5110210;28;19931;-51
2023/10/10 09:13:10;;;;;;;;;;;;;;;;;;5110237;28;20697;-54
2023/10/10 09:15:24;;;;;;;;;;;;;;;;;;5094313;28;19939;-53
2023/10/10 09:17:55;;;;;;;;;;;;;;;;;;5110725;28;19931;-54
2023/10/10 09:20:25;;;;;;;;;;;;;;;;;;5113477;28;19924;-54
2023/10/10 09:22:51;;;;;;;;;;;;;;;;;;5113710;28;19934;-53
2023/10/10 09:25:18;;;;;;;;;;;;;;;;;;5113832;28;19976;-53
2023/10/10 09:27:43;;;;;;;;;;;;;;;;;;5112607;28;19927;-53
2023/10/10 09:30:10;;;;;;;;;;;;;;;;;;5113913;28;20018;-54
2023/10/10 09:32:36;;;;;;;;;;;;;;;;;;5112699;28;19931;-53
2023/10/10 09:35:01;;;;;;;;;;;;;;;;;;5113429;28;20494;-53
2023/10/10 09:37:30;;;;;;;;;;;;;;;;;;5112793;28;19928;-53
2023/10/10 09:39:55;;;;;;;;;;;;;;;;;;5113115;28;19935;-54
2023/10/10 09:42:44;;;;;;;;;;;;;;;;;;5112798;28;19924;-53
2023/10/10 09:48:06;;;;;;;;;;;;;;;;;;5099952;28;20480;-54
2023/10/10 09:50:37;;;;;;;;;;;;;;;;;;5113003;28;20295;-53
2023/10/10 09:53:06;;;;;;;;;;;;;;;;;;5112803;28;19923;-53
2023/10/10 10:00:45;;;;;;;;;;;;;;;;;;5170880;27;19934;-54
2023/10/10 10:03:49;;;;;;;;;;;;;;;;;;5169578;27;19930;-53
2023/10/10 10:05:58;;;;;;;;;;;;;;;;;;5153419;27;20324;-54
2023/10/10 10:08:23;;;;;;;;;;;;;;;;;;5168118;27;19927;-54
2023/10/10 10:10:49;;;;;;;;;;;;;;;;;;5169621;27;19933;-53
2023/10/10 10:13:19;;;;;;;;;;;;;;;;;;5169138;27;19962;-54
2023/10/10 10:15:52;;;;;;;;;;;;;;;;;;5169396;27;20367;-54
2023/10/10 10:18:26;;;;;;;;;;;;;;;;;;5168769;27;19966;-53
2023/10/10 10:21:28;;;;;;;;;;;;;;;;;;5169134;27;19923;-53
2023/10/10 10:23:45;;;;;;;;;;;;;;;;;;5168066;27;19927;-54
2023/10/10 10:26:11;;;;;;;;;;;;;;;;;;5169007;27;20389;-54
2023/10/10 10:28:36;;;;;;;;;;;;;;;;;;5167672;27;20318;-54
2023/10/10 10:31:04;;;;;;;;;;;;;;;;;;5169527;27;19930;-53
2023/10/10 10:33:32;;;;;;;;;;;;;;;;;;5169359;27;19927;-54
2023/10/10 10:36:05;;;;;;;;;;;;;;;;;;5169014;27;19923;-53
2023/10/10 10:38:31;;;;;;;;;;;;;;;;;;5168273;27;19926;-53
2023/10/10 10:41:17;;;;;;;;;;;;;;;;;;5168911;27;19934;-53
2023/10/10 10:43:42;;;;;;;;;;;;;;;;;;5147242;27;19985;-54
2023/10/10 10:46:15;;;;;;;;;;;;;;;;;;5147481;27;19928;-53
2023/10/10 10:48:41;;;;;;;;;;;;;;;;;;5147122;27;20348;-54
2023/10/10 10:53:56;;;;;;;;;;;;;;;;;;5144542;27;19930;-54
2023/10/10 10:59:25;;;;;;;;;;;;;;;;;;5155956;27;19927;-53
2023/10/10 11:01:36;;;;;;;;;;;;;;;;;;5136985;27;19946;-54
2023/10/10 11:04:05;;;;;;;;;;;;;;;;;;5147925;27;19923;-53
2023/10/10 11:06:30;;;;;;;;;;;;;;;;;;5147368;27;20315;-53
2023/10/10 11:09:09;;;;;;;;;;;;;;;;;;5135050;27;19981;-54
2023/10/10 11:11:37;;;;;;;;;;;;;;;;;;5133296;28;19928;-53
2023/10/10 11:14:04;;;;;;;;;;;;;;;;;;5133217;27;19972;-53
2023/10/10 11:16:36;;;;;;;;;;;;;;;;;;5133548;27;19974;-53
2023/10/10 11:19:12;;;;;;;;;;;;;;;;;;5132557;27;19934;-53
2023/10/10 11:21:37;;;;;;;;;;;;;;;;;;5132333;28;19970;-53
2023/10/10 11:24:04;;;;;;;;;;;;;;;;;;5133075;27;19930;-54
2023/10/10 11:26:35;;;;;;;;;;;;;;;;;;5133144;27;19972;-54
2023/10/10 11:29:00;;;;;;;;;;;;;;;;;;5132868;27;19976;-53
2023/10/10 11:31:29;;;;;;;;;;;;;;;;;;5133450;28;19931;-53
2023/10/10 11:34:09;;;;;;;;;;;;;;;;;;5133364;28;19946;-54
2023/10/10 11:36:37;;;;;;;;;;;;;;;;;;5133192;28;19923;-53
2023/10/10 11:39:16;;;;;;;;;;;;;;;;;;5132524;28;19924;-54
2023/10/10 11:41:41;;;;;;;;;;;;;;;;;;5133448;28;19950;-53
2023/10/10 11:44:07;;;;;;;;;;;;;;;;;;5132491;28;20284;-54
2023/10/10 11:46:33;;;;;;;;;;;;;;;;;;5133104;28;19959;-53
2023/10/10 11:49:00;;;;;;;;;;;;;;;;;;5132371;28;19923;-53
2023/10/10 11:51:25;;;;;;;;;;;;;;;;;;5132857;28;19927;-53
2023/10/10 11:53:55;;;;;;;;;;;;;;;;;;5125693;27;19928;-53
2023/10/10 11:56:24;;;;;;;;;;;;;;;;;;5145832;27;20022;-53
2023/10/10 11:58:52;;;;;;;;;;;;;;;;;;5141360;27;19934;-53
2023/10/10 12:01:47;;;;;;;;;;;;;;;;;;5133413;28;20239;-53
2023/10/10 12:04:20;;;;;;;;;;;;;;;;;;5117693;28;19930;-53
2023/10/10 12:06:46;;;;;;;;;;;;;;;;;;5132184;28;20411;-54
2023/10/10 12:09:14;;;;;;;;;;;;;;;;;;5131903;28;20006;-53
2023/10/10 12:11:39;;;;;;;;;;;;;;;;;;5132655;28;19992;-53
2023/10/10 12:14:10;;;;;;;;;;;;;;;;;;5131059;28;19955;-53
2023/10/10 12:16:36;;;;;;;;;;;;;;;;;;5133145;27;19966;-53
2023/10/10 12:19:01;;;;;;;;;;;;;;;;;;5132293;27;19993;-53
2023/10/10 12:21:31;;;;;;;;;;;;;;;;;;5131815;28;20006;-53
2023/10/10 12:23:57;;;;;;;;;;;;;;;;;;5132899;28;20299;-53
2023/10/10 12:26:27;;;;;;;;;;;;;;;;;;5132988;28;20056;-53
2023/10/10 12:28:52;;;;;;;;;;;;;;;;;;5132743;28;19927;-53
2023/10/10 12:31:18;;;;;;;;;;;;;;;;;;5132919;28;19973;-50
2023/10/10 12:33:48;;;;;;;;;;;;;;;;;;5132756;28;19927;-53
2023/10/10 12:36:14;;;;;;;;;;;;;;;;;;5133111;28;20022;-54
2023/10/10 12:38:40;;;;;;;;;;;;;;;;;;5131732;28;20375;-54
2023/10/10 12:41:05;;;;;;;;;;;;;;;;;;5132460;28;19923;-53
2023/10/10 12:43:31;;;;;;;;;;;;;;;;;;5132489;28;20018;-54
2023/10/10 12:45:56;;;;;;;;;;;;;;;;;;5132857;28;20038;-53
2023/10/10 12:48:22;;;;;;;;;;;;;;;;;;5131744;28;19930;-54
2023/10/10 12:50:47;;;;;;;;;;;;;;;;;;5133108;28;19934;-54
2023/10/10 12:53:18;;;;;;;;;;;;;;;;;;5137603;27;19958;-53
2023/10/10 12:55:52;;;;;;;;;;;;;;;;;;5145094;27;19979;-53
2023/10/10 12:58:20;;;;;;;;;;;;;;;;;;5146192;27;19967;-53
2023/10/10 13:00:52;;;;;;;;;;;;;;;;;;5132838;28;19957;-54
2023/10/10 13:03:18;;;;;;;;;;;;;;;;;;5132693;28;19978;-53
2023/10/10 13:05:47;;;;;;;;;;;;;;;;;;5132864;28;19928;-53
2023/10/10 13:08:14;;;;;;;;;;;;;;;;;;5131556;28;19931;-53
2023/10/10 13:10:40;;;;;;;;;;;;;;;;;;5132857;28;19927;-53
2023/10/10 13:13:07;;;;;;;;;;;;;;;;;;5131498;28;19928;-53
2023/10/10 13:15:47;;;;;;;;;;;;;;;;;;5132205;27;19996;-53
2023/10/10 13:18:19;;;;;;;;;;;;;;;;;;5132078;27;19923;-53
2023/10/10 13:20:47;;;;;;;;;;;;;;;;;;5132556;28;19934;-52
2023/10/10 13:23:13;;;;;;;;;;;;;;;;;;5131446;28;19931;-53
2023/10/10 13:25:39;;;;;;;;;;;;;;;;;;5132431;27;19928;-53
2023/10/10 13:28:09;;;;;;;;;;;;;;;;;;5131685;28;19923;-53
2023/10/10 13:30:36;;;;;;;;;;;;;;;;;;5132142;27;19928;-53
2023/10/10 13:33:01;;;;;;;;;;;;;;;;;;5131580;28;19924;-53
2023/10/10 13:35:28;;;;;;;;;;;;;;;;;;5131968;28;20386;-53
2023/10/10 13:37:53;;;;;;;;;;;;;;;;;;5131403;28;19989;-53
2023/10/10 13:40:22;;;;;;;;;;;;;;;;;;5131907;28;20422;-53
2023/10/10 13:42:48;;;;;;;;;;;;;;;;;;5131854;28;20368;-53
2023/10/10 13:45:18;;;;;;;;;;;;;;;;;;5131703;28;19927;-53
2023/10/10 13:47:48;;;;;;;;;;;;;;;;;;5131571;28;19927;-53
2023/10/10 13:50:28;;;;;;;;;;;;;;;;;;5131441;28;19946;-53
2023/10/10 13:52:53;;;;;;;;;;;;;;;;;;5133846;27;19923;-53
2023/10/10 13:55:19;;;;;;;;;;;;;;;;;;5136181;27;19983;-53
2023/10/10 13:57:44;;;;;;;;;;;;;;;;;;5131415;28;19978;-53
2023/10/10 14:00:28;;;;;;;;;;;;;;;;;;5131632;28;20018;-53
2023/10/10 14:02:59;;;;;;;;;;;;;;;;;;5132106;28;19924;-53
2023/10/10 14:05:29;;;;;;;;;;;;;;;;;;5132102;28;19934;-53
2023/10/10 14:07:54;;;;;;;;;;;;;;;;;;5130425;28;20394;-53
2023/10/10 14:10:20;;;;;;;;;;;;;;;;;;5131837;28;19998;-51
2023/10/10 14:12:46;;;;;;;;;;;;;;;;;;5131191;28;19928;-53
2023/10/10 14:15:11;;;;;;;;;;;;;;;;;;5131203;28;19969;-53
2023/10/10 14:17:37;;;;;;;;;;;;;;;;;;5130669;28;19923;-53
2023/10/10 14:20:19;;;;;;;;;;;;;;;;;;5130721;28;19966;-53
2023/10/10 14:22:44;;;;;;;;;;;;;;;;;;5131539;28;20364;-53
2023/10/10 14:25:20;;;;;;;;;;;;;;;;;;5130573;28;19932;-53
2023/10/10 14:27:46;;;;;;;;;;;;;;;;;;5130947;27;20080;-53
2023/10/10 14:30:26;;;;;;;;;;;;;;;;;;5130792;28;20010;-53
2023/10/10 14:32:55;;;;;;;;;;;;;;;;;;5130732;28;19924;-53
2023/10/10 14:35:23;;;;;;;;;;;;;;;;;;5130806;28;19931;-53
2023/10/10 14:37:50;;;;;;;;;;;;;;;;;;5130271;28;19932;-53
2023/10/10 14:40:26;;;;;;;;;;;;;;;;;;5129983;28;19928;-53
2023/10/10 14:42:52;;;;;;;;;;;;;;;;;;5131000;27;20318;-53
2023/10/10 14:45:17;;;;;;;;;;;;;;;;;;5133865;28;19963;-53
2023/10/10 14:47:43;;;;;;;;;;;;;;;;;;5133760;28;20068;-53
2023/10/10 14:50:10;;;;;;;;;;;;;;;;;;5134809;28;19935;-53
2023/10/10 14:52:40;;;;;;;;;;;;;;;;;;5135777;27;19923;-53
2023/10/10 14:55:16;;;;;;;;;;;;;;;;;;5143226;27;19930;-53
2023/10/10 14:57:43;;;;;;;;;;;;;;;;;;5153002;27;19934;-52
2023/10/10 15:00:17;;;;;;;;;;;;;;;;;;5134215;28;19931;-53
2023/10/10 15:02:43;;;;;;;;;;;;;;;;;;5134882;28;19931;-53
2023/10/10 15:05:10;;;;;;;;;;;;;;;;;;5134289;28;20002;-53
2023/10/10 15:07:41;;;;;;;;;;;;;;;;;;5133630;28;19923;-53
2023/10/10 15:10:07;;;;;;;;;;;;;;;;;;5134303;28;19963;-53
2023/10/10 15:12:33;;;;;;;;;;;;;;;;;;5133954;28;19924;-53
2023/10/10 15:15:00;;;;;;;;;;;;;;;;;;5134360;28;19924;-53
2023/10/10 15:17:27;;;;;;;;;;;;;;;;;;5134246;28;19923;-53
2023/10/10 15:19:52;;;;;;;;;;;;;;;;;;5133870;28;19923;-53
2023/10/10 15:22:18;;;;;;;;;;;;;;;;;;5133950;27;20060;-53
2023/10/10 15:24:49;;;;;;;;;;;;;;;;;;5133544;27;19927;-53
2023/10/10 15:27:15;;;;;;;;;;;;;;;;;;5133016;27;19935;-53
2023/10/10 15:29:42;;;;;;;;;;;;;;;;;;5133555;27;20478;-54
2023/10/10 15:32:07;;;;;;;;;;;;;;;;;;5134227;28;19980;-53
2023/10/10 15:34:33;;;;;;;;;;;;;;;;;;5134243;28;19927;-53
2023/10/10 15:37:00;;;;;;;;;;;;;;;;;;5134227;28;20014;-53
2023/10/10 15:39:25;;;;;;;;;;;;;;;;;;5133132;28;20428;-53
2023/10/10 15:41:51;;;;;;;;;;;;;;;;;;5134006;28;20014;-53
2023/10/10 15:44:16;;;;;;;;;;;;;;;;;;5133679;28;19923;-53
2023/10/10 15:46:43;;;;;;;;;;;;;;;;;;5133724;28;20027;-53
2023/10/10 15:49:11;;;;;;;;;;;;;;;;;;5133308;28;20360;-53
2023/10/10 15:51:50;;;;;;;;;;;;;;;;;;5137019;27;19930;-53
2023/10/10 15:54:16;;;;;;;;;;;;;;;;;;5138474;27;20010;-53
2023/10/10 15:56:41;;;;;;;;;;;;;;;;;;5133584;28;20014;-53
2023/10/10 15:59:07;;;;;;;;;;;;;;;;;;5132611;28;19931;-53
2023/10/10 16:01:34;;;;;;;;;;;;;;;;;;5133646;28;20322;-53
2023/10/10 16:04:00;;;;;;;;;;;;;;;;;;5133635;28;19923;-53
2023/10/10 16:06:25;;;;;;;;;;;;;;;;;;5133243;28;19924;-53
2023/10/10 16:08:51;;;;;;;;;;;;;;;;;;5132729;28;20002;-53
2023/10/10 16:11:16;;;;;;;;;;;;;;;;;;5133812;28;19923;-53
2023/10/10 16:13:42;;;;;;;;;;;;;;;;;;5133141;28;20022;-53
2023/10/10 16:16:07;;;;;;;;;;;;;;;;;;5133562;28;19924;-53
2023/10/10 16:18:33;;;;;;;;;;;;;;;;;;5133028;28;20313;-52
2023/10/10 16:20:58;;;;;;;;;;;;;;;;;;5132949;28;19924;-53
2023/10/10 16:23:24;;;;;;;;;;;;;;;;;;5133072;27;20018;-53
2023/10/10 16:25:50;;;;;;;;;;;;;;;;;;5133040;27;20022;-53
2023/10/10 16:28:17;;;;;;;;;;;;;;;;;;5131935;27;20321;-53
2023/10/10 16:30:42;;;;;;;;;;;;;;;;;;5132350;28;19927;-53
2023/10/10 16:33:09;;;;;;;;;;;;;;;;;;5133376;28;20056;-53
2023/10/10 16:35:34;;;;;;;;;;;;;;;;;;5132999;28;20354;-53
2023/10/10 16:38:02;;;;;;;;;;;;;;;;;;5132704;28;20023;-53
2023/10/10 16:40:29;;;;;;;;;;;;;;;;;;5132777;28;20396;-53
2023/10/10 16:42:56;;;;;;;;;;;;;;;;;;5132841;28;19931;-53
2023/10/10 16:45:22;;;;;;;;;;;;;;;;;;5132565;28;19972;-53
2023/10/10 16:47:47;;;;;;;;;;;;;;;;;;5131475;28;19923;-53
2023/10/10 16:50:13;;;;;;;;;;;;;;;;;;5131634;28;19927;-53
2023/10/10 16:52:38;;;;;;;;;;;;;;;;;;5126734;27;19924;-53
2023/10/10 16:55:10;;;;;;;;;;;;;;;;;;5132219;28;19923;-53
2023/10/10 16:57:36;;;;;;;;;;;;;;;;;;5131511;28;20363;-53
2023/10/10 17:00:02;;;;;;;;;;;;;;;;;;5131777;28;19953;-53
2023/10/10 17:02:27;;;;;;;;;;;;;;;;;;5132239;28;19930;-53
2023/10/10 17:04:53;;;;;;;;;;;;;;;;;;5131479;28;20023;-53
2023/10/10 17:07:18;;;;;;;;;;;;;;;;;;5130863;27;20064;-53
2023/10/10 17:09:44;;;;;;;;;;;;;;;;;;5130452;28;19956;-53
2023/10/10 17:12:09;;;;;;;;;;;;;;;;;;5131551;28;20304;-53
2023/10/10 17:14:37;;;;;;;;;;;;;;;;;;5131696;28;19945;-53
2023/10/10 17:17:03;;;;;;;;;;;;;;;;;;5131673;28;20283;-53
2023/10/10 17:19:31;;;;;;;;;;;;;;;;;;5131576;28;20060;-53
2023/10/10 17:21:58;;;;;;;;;;;;;;;;;;5131515;28;20007;-51
2023/10/10 17:24:25;;;;;;;;;;;;;;;;;;5131708;27;19928;-53
2023/10/10 17:26:50;;;;;;;;;;;;;;;;;;5131652;27;19929;-53
2023/10/10 17:29:16;;;;;;;;;;;;;;;;;;5130864;27;19923;-53
2023/10/10 17:31:42;;;;;;;;;;;;;;;;;;5129297;28;19974;-53
2023/10/10 17:34:07;;;;;;;;;;;;;;;;;;5131756;27;20017;-53
2023/10/10 17:36:35;;;;;;;;;;;;;;;;;;5131223;27;19930;-53
2023/10/10 17:39:01;;;;;;;;;;;;;;;;;;5130644;27;19963;-53
2023/10/10 17:41:26;;;;;;;;;;;;;;;;;;5131390;28;20034;-53
2023/10/10 17:43:52;;;;;;;;;;;;;;;;;;5131234;28;20026;-53
2023/10/10 17:46:20;;;;;;;;;;;;;;;;;;5131230;28;19928;-53
2023/10/10 17:48:46;;;;;;;;;;;;;;;;;;5130700;28;19930;-53
2023/10/10 17:51:14;;;;;;;;;;;;;;;;;;5134636;27;19973;-53
2023/10/10 17:53:40;;;;;;;;;;;;;;;;;;5150433;27;19927;-53
2023/10/10 17:56:05;;;;;;;;;;;;;;;;;;5120388;27;20027;-53
2023/10/10 17:58:31;;;;;;;;;;;;;;;;;;5119342;28;19966;-53
2023/10/10 18:00:59;;;;;;;;;;;;;;;;;;5131060;28;20030;-53
2023/10/10 18:03:28;;;;;;;;;;;;;;;;;;5131409;28;19927;-53
2023/10/10 18:05:54;;;;;;;;;;;;;;;;;;5131360;28;20253;-53
2023/10/10 18:08:19;;;;;;;;;;;;;;;;;;5130320;28;19934;-53
2023/10/10 18:10:47;;;;;;;;;;;;;;;;;;5130916;28;20407;-53
2023/10/10 18:13:12;;;;;;;;;;;;;;;;;;5130457;28;20041;-53
2023/10/10 18:15:38;;;;;;;;;;;;;;;;;;5130718;28;19934;-53
2023/10/10 18:18:07;;;;;;;;;;;;;;;;;;5130939;27;19924;-53
2023/10/10 18:20:33;;;;;;;;;;;;;;;;;;5134388;28;19935;-53
2023/10/10 18:22:58;;;;;;;;;;;;;;;;;;5134014;28;19923;-53
2023/10/10 18:25:25;;;;;;;;;;;;;;;;;;5134616;28;20015;-53
2023/10/10 18:27:51;;;;;;;;;;;;;;;;;;5133881;28;19936;-53
2023/10/10 18:30:19;;;;;;;;;;;;;;;;;;5134546;28;19930;-53
2023/10/10 18:32:44;;;;;;;;;;;;;;;;;;5133842;28;19950;-53
2023/10/10 18:35:13;;;;;;;;;;;;;;;;;;5134159;27;20085;-53
2023/10/10 18:37:40;;;;;;;;;;;;;;;;;;5134000;27;19970;-53
2023/10/10 18:40:11;;;;;;;;;;;;;;;;;;5134278;28;19927;-53
2023/10/10 18:42:36;;;;;;;;;;;;;;;;;;5133639;28;19967;-52
2023/10/10 18:45:02;;;;;;;;;;;;;;;;;;5134258;28;19958;-53
2023/10/10 18:47:31;;;;;;;;;;;;;;;;;;5134138;28;19927;-53
2023/10/10 18:49:56;;;;;;;;;;;;;;;;;;5133814;27;20367;-53
2023/10/10 18:52:22;;;;;;;;;;;;;;;;;;5150714;27;19929;-53
2023/10/10 18:54:49;;;;;;;;;;;;;;;;;;5154725;27;20271;-53
2023/10/10 18:57:15;;;;;;;;;;;;;;;;;;5154863;27;19963;-53
2023/10/10 18:59:42;;;;;;;;;;;;;;;;;;5135563;27;19974;-53
2023/10/10 19:02:08;;;;;;;;;;;;;;;;;;5133436;28;19928;-53
2023/10/10 19:04:33;;;;;;;;;;;;;;;;;;5133645;28;19928;-53